sensor_id;sensor_type;location;lat;lon;timestamp;temperature;humidity
21353;DHT22;10834;52.268;6.770;2023-04-03T00:00:15;3.90;99.90
21353;DHT22;10834;52.268;6.770;2023-04-03T00:03:02;3.90;99.90
21353;DHT22;10834;52.268;6.770;2023-04-03T00:05:47;3.90;99.90
21353;DHT22;10834;52.268;6.770;2023-04-03T00:08:34;3.80;99.90
21353;DHT22;10834;52.268;6.770;2023-04-03T00:11:21;3.80;99.90
21353;DHT22;10834;52.268;6.770;2023-04-03T00:14:07;3.80;99.90
21353;DHT22;10834;52.268;6.770;2023-04-03T00:16:53;3.70;99.90
21353;DHT22;10834;52.268;6.770;2023-04-03T00:19:39;3.70;99.90
21353;DHT22;10834;52.268;6.770;2023-04-03T00:22:25;3.70;99.90
21353;DHT22;10834;52.268;6.770;2023-04-03T00:25:14;3.70;99.90
21353;DHT22;10834;52.268;6.770;2023-04-03T00:28:00;3.70;99.90
21353;DHT22;10834;52.268;6.770;2023-04-03T00:30:48;3.70;99.90
21353;DHT22;10834;52.268;6.770;2023-04-03T00:33:34;3.70;99.90
21353;DHT22;10834;52.268;6.770;2023-04-03T00:36:20;3.60;99.90
21353;DHT22;10834;52.268;6.770;2023-04-03T00:39:06;3.60;99.90
21353;DHT22;10834;52.268;6.770;2023-04-03T00:41:52;3.60;99.90
21353;DHT22;10834;52.268;6.770;2023-04-03T00:47:24;3.60;99.90
21353;DHT22;10834;52.268;6.770;2023-04-03T00:50:10;3.60;99.90
21353;DHT22;10834;52.268;6.770;2023-04-03T00:52:57;3.50;99.90
21353;DHT22;10834;52.268;6.770;2023-04-03T00:55:44;3.50;99.90
21353;DHT22;10834;52.268;6.770;2023-04-03T00:59:04;3.50;99.90
21353;DHT22;10834;52.268;6.770;2023-04-03T01:01:50;3.50;99.90
21353;DHT22;10834;52.268;6.770;2023-04-03T01:04:37;3.50;99.90
21353;DHT22;10834;52.268;6.770;2023-04-03T01:07:29;3.40;99.90
21353;DHT22;10834;52.268;6.770;2023-04-03T01:10:16;3.40;99.90
21353;DHT22;10834;52.268;6.770;2023-04-03T01:13:34;3.40;99.90
21353;DHT22;10834;52.268;6.770;2023-04-03T01:16:21;3.40;99.90
21353;DHT22;10834;52.268;6.770;2023-04-03T01:19:11;3.30;99.90
21353;DHT22;10834;52.268;6.770;2023-04-03T01:22:19;3.30;99.90
21353;DHT22;10834;52.268;6.770;2023-04-03T01:25:08;3.30;99.90
21353;DHT22;10834;52.268;6.770;2023-04-03T01:27:55;3.30;99.90
21353;DHT22;10834;52.268;6.770;2023-04-03T01:33:57;3.30;99.90
21353;DHT22;10834;52.268;6.770;2023-04-03T01:36:44;3.20;99.90
21353;DHT22;10834;52.268;6.770;2023-04-03T01:39:30;3.20;99.90
21353;DHT22;10834;52.268;6.770;2023-04-03T01:42:16;3.20;99.90
21353;DHT22;10834;52.268;6.770;2023-04-03T01:45:03;3.10;99.90
21353;DHT22;10834;52.268;6.770;2023-04-03T01:47:49;3.10;99.90
21353;DHT22;10834;52.268;6.770;2023-04-03T01:50:35;3.10;99.90
21353;DHT22;10834;52.268;6.770;2023-04-03T01:53:21;3.10;99.90
21353;DHT22;10834;52.268;6.770;2023-04-03T01:56:07;3.00;99.90
21353;DHT22;10834;52.268;6.770;2023-04-03T01:58:54;3.00;99.90
21353;DHT22;10834;52.268;6.770;2023-04-03T02:01:40;3.00;99.90
21353;DHT22;10834;52.268;6.770;2023-04-03T02:04:26;3.00;99.90
21353;DHT22;10834;52.268;6.770;2023-04-03T02:07:12;3.00;99.90
21353;DHT22;10834;52.268;6.770;2023-04-03T02:09:58;2.90;99.90
21353;DHT22;10834;52.268;6.770;2023-04-03T02:12:44;2.90;99.90
21353;DHT22;10834;52.268;6.770;2023-04-03T02:15:30;2.90;99.90
21353;DHT22;10834;52.268;6.770;2023-04-03T02:18:16;2.80;99.90
21353;DHT22;10834;52.268;6.770;2023-04-03T02:21:02;2.80;99.90
21353;DHT22;10834;52.268;6.770;2023-04-03T02:23:48;2.70;99.90
21353;DHT22;10834;52.268;6.770;2023-04-03T02:26:34;2.70;99.90
21353;DHT22;10834;52.268;6.770;2023-04-03T02:29:20;2.70;99.90
21353;DHT22;10834;52.268;6.770;2023-04-03T02:32:06;2.70;99.90
21353;DHT22;10834;52.268;6.770;2023-04-03T02:34:52;2.60;99.90
21353;DHT22;10834;52.268;6.770;2023-04-03T02:37:39;2.60;99.90
21353;DHT22;10834;52.268;6.770;2023-04-03T02:40:25;2.60;99.90
21353;DHT22;10834;52.268;6.770;2023-04-03T02:43:11;2.50;99.90
21353;DHT22;10834;52.268;6.770;2023-04-03T02:45:57;2.50;99.90
21353;DHT22;10834;52.268;6.770;2023-04-03T02:48:43;2.50;99.90
21353;DHT22;10834;52.268;6.770;2023-04-03T02:51:29;2.40;99.90
21353;DHT22;10834;52.268;6.770;2023-04-03T02:54:15;2.40;99.90
21353;DHT22;10834;52.268;6.770;2023-04-03T02:57:01;2.30;99.90
21353;DHT22;10834;52.268;6.770;2023-04-03T02:59:47;2.30;99.90
21353;DHT22;10834;52.268;6.770;2023-04-03T03:02:33;2.30;99.90
21353;DHT22;10834;52.268;6.770;2023-04-03T03:05:19;2.20;99.90
21353;DHT22;10834;52.268;6.770;2023-04-03T03:08:05;2.20;99.90
21353;DHT22;10834;52.268;6.770;2023-04-03T03:10:51;2.10;99.90
21353;DHT22;10834;52.268;6.770;2023-04-03T03:13:38;2.10;99.90
21353;DHT22;10834;52.268;6.770;2023-04-03T03:16:24;2.10;99.90
21353;DHT22;10834;52.268;6.770;2023-04-03T03:19:10;2.10;99.90
21353;DHT22;10834;52.268;6.770;2023-04-03T03:21:56;2.10;99.90
21353;DHT22;10834;52.268;6.770;2023-04-03T03:24:42;2.00;99.90
21353;DHT22;10834;52.268;6.770;2023-04-03T03:27:28;2.00;99.90
21353;DHT22;10834;52.268;6.770;2023-04-03T03:30:15;2.00;99.90
21353;DHT22;10834;52.268;6.770;2023-04-03T03:33:01;2.00;99.90
21353;DHT22;10834;52.268;6.770;2023-04-03T03:35:47;1.90;99.90
21353;DHT22;10834;52.268;6.770;2023-04-03T03:38:33;1.90;99.90
21353;DHT22;10834;52.268;6.770;2023-04-03T03:41:19;1.80;99.90
21353;DHT22;10834;52.268;6.770;2023-04-03T03:44:05;1.80;99.90
21353;DHT22;10834;52.268;6.770;2023-04-03T03:46:51;1.70;99.90
21353;DHT22;10834;52.268;6.770;2023-04-03T03:49:37;1.70;99.90
21353;DHT22;10834;52.268;6.770;2023-04-03T03:52:23;1.70;99.90
21353;DHT22;10834;52.268;6.770;2023-04-03T03:55:10;1.60;99.90
21353;DHT22;10834;52.268;6.770;2023-04-03T03:57:56;1.60;99.90
21353;DHT22;10834;52.268;6.770;2023-04-03T04:00:42;1.50;99.90
21353;DHT22;10834;52.268;6.770;2023-04-03T04:03:28;1.50;99.90
21353;DHT22;10834;52.268;6.770;2023-04-03T04:06:14;1.50;99.90
21353;DHT22;10834;52.268;6.770;2023-04-03T04:09:00;1.40;99.90
21353;DHT22;10834;52.268;6.770;2023-04-03T04:11:46;1.40;99.90
21353;DHT22;10834;52.268;6.770;2023-04-03T04:14:32;1.30;99.90
21353;DHT22;10834;52.268;6.770;2023-04-03T04:17:19;1.30;99.90
21353;DHT22;10834;52.268;6.770;2023-04-03T04:20:05;1.30;99.90
21353;DHT22;10834;52.268;6.770;2023-04-03T04:22:51;1.30;99.90
21353;DHT22;10834;52.268;6.770;2023-04-03T04:25:37;1.20;99.90
21353;DHT22;10834;52.268;6.770;2023-04-03T04:28:24;1.20;99.90
21353;DHT22;10834;52.268;6.770;2023-04-03T04:31:10;1.20;99.90
21353;DHT22;10834;52.268;6.770;2023-04-03T04:33:56;1.20;99.90
21353;DHT22;10834;52.268;6.770;2023-04-03T04:36:42;1.10;99.90
21353;DHT22;10834;52.268;6.770;2023-04-03T04:39:28;1.10;99.90
21353;DHT22;10834;52.268;6.770;2023-04-03T04:42:14;1.00;99.90
21353;DHT22;10834;52.268;6.770;2023-04-03T04:45:00;1.00;99.90
21353;DHT22;10834;52.268;6.770;2023-04-03T04:47:46;0.90;99.90
21353;DHT22;10834;52.268;6.770;2023-04-03T04:50:32;0.90;99.90
21353;DHT22;10834;52.268;6.770;2023-04-03T04:53:18;0.90;99.90
21353;DHT22;10834;52.268;6.770;2023-04-03T04:56:04;0.90;99.90
21353;DHT22;10834;52.268;6.770;2023-04-03T04:58:51;0.90;99.90
21353;DHT22;10834;52.268;6.770;2023-04-03T05:01:37;0.90;99.90
21353;DHT22;10834;52.268;6.770;2023-04-03T05:04:23;0.80;99.90
21353;DHT22;10834;52.268;6.770;2023-04-03T05:07:09;0.80;99.90
21353;DHT22;10834;52.268;6.770;2023-04-03T05:09:55;0.90;99.90
21353;DHT22;10834;52.268;6.770;2023-04-03T05:12:41;0.90;99.90
21353;DHT22;10834;52.268;6.770;2023-04-03T05:15:27;0.90;99.90
21353;DHT22;10834;52.268;6.770;2023-04-03T05:18:13;0.80;99.90
21353;DHT22;10834;52.268;6.770;2023-04-03T05:20:59;0.90;99.90
21353;DHT22;10834;52.268;6.770;2023-04-03T05:23:45;0.90;99.90
21353;DHT22;10834;52.268;6.770;2023-04-03T05:26:31;0.90;99.90
21353;DHT22;10834;52.268;6.770;2023-04-03T05:29:17;0.90;99.90
21353;DHT22;10834;52.268;6.770;2023-04-03T05:32:04;0.90;99.90
21353;DHT22;10834;52.268;6.770;2023-04-03T05:34:50;1.00;99.90
21353;DHT22;10834;52.268;6.770;2023-04-03T05:37:37;1.00;99.90
21353;DHT22;10834;52.268;6.770;2023-04-03T05:40:23;1.00;99.90
21353;DHT22;10834;52.268;6.770;2023-04-03T05:43:09;1.10;99.90
21353;DHT22;10834;52.268;6.770;2023-04-03T05:45:55;1.10;99.90
21353;DHT22;10834;52.268;6.770;2023-04-03T05:48:42;1.10;99.90
21353;DHT22;10834;52.268;6.770;2023-04-03T05:51:32;1.20;99.90
21353;DHT22;10834;52.268;6.770;2023-04-03T05:54:22;1.20;99.90
21353;DHT22;10834;52.268;6.770;2023-04-03T05:57:08;1.20;99.90
21353;DHT22;10834;52.268;6.770;2023-04-03T05:59:54;1.30;99.90
21353;DHT22;10834;52.268;6.770;2023-04-03T06:02:41;1.30;99.90
21353;DHT22;10834;52.268;6.770;2023-04-03T06:05:27;1.40;99.90
21353;DHT22;10834;52.268;6.770;2023-04-03T06:08:13;1.40;99.90
21353;DHT22;10834;52.268;6.770;2023-04-03T06:11:00;1.40;99.90
21353;DHT22;10834;52.268;6.770;2023-04-03T06:13:47;1.50;99.90
21353;DHT22;10834;52.268;6.770;2023-04-03T06:16:34;1.60;99.90
21353;DHT22;10834;52.268;6.770;2023-04-03T06:19:20;1.60;99.90
21353;DHT22;10834;52.268;6.770;2023-04-03T06:22:06;1.70;99.90
21353;DHT22;10834;52.268;6.770;2023-04-03T06:24:52;1.80;99.90
21353;DHT22;10834;52.268;6.770;2023-04-03T06:27:38;1.90;99.90
21353;DHT22;10834;52.268;6.770;2023-04-03T06:30:24;2.00;99.90
21353;DHT22;10834;52.268;6.770;2023-04-03T06:33:11;2.00;99.90
21353;DHT22;10834;52.268;6.770;2023-04-03T06:35:58;2.10;99.90
21353;DHT22;10834;52.268;6.770;2023-04-03T06:38:44;2.30;99.90
21353;DHT22;10834;52.268;6.770;2023-04-03T06:41:30;2.30;99.90
21353;DHT22;10834;52.268;6.770;2023-04-03T06:44:17;2.40;99.90
21353;DHT22;10834;52.268;6.770;2023-04-03T06:47:03;2.50;99.90
21353;DHT22;10834;52.268;6.770;2023-04-03T06:49:49;2.60;99.90
21353;DHT22;10834;52.268;6.770;2023-04-03T06:52:35;2.70;99.90
21353;DHT22;10834;52.268;6.770;2023-04-03T06:55:21;2.80;99.90
21353;DHT22;10834;52.268;6.770;2023-04-03T06:58:07;2.90;99.90
21353;DHT22;10834;52.268;6.770;2023-04-03T07:00:53;3.00;99.90
21353;DHT22;10834;52.268;6.770;2023-04-03T07:03:39;3.10;99.90
21353;DHT22;10834;52.268;6.770;2023-04-03T07:06:26;3.20;99.90
21353;DHT22;10834;52.268;6.770;2023-04-03T07:09:13;3.30;99.90
21353;DHT22;10834;52.268;6.770;2023-04-03T07:12:00;3.50;99.90
21353;DHT22;10834;52.268;6.770;2023-04-03T07:14:46;3.60;99.90
21353;DHT22;10834;52.268;6.770;2023-04-03T07:17:32;3.70;99.90
21353;DHT22;10834;52.268;6.770;2023-04-03T07:20:18;3.90;99.90
21353;DHT22;10834;52.268;6.770;2023-04-03T07:23:04;4.00;99.90
21353;DHT22;10834;52.268;6.770;2023-04-03T07:25:51;4.50;99.90
21353;DHT22;10834;52.268;6.770;2023-04-03T07:28:38;7.50;99.90
21353;DHT22;10834;52.268;6.770;2023-04-03T07:31:25;12.50;72.60
21353;DHT22;10834;52.268;6.770;2023-04-03T07:34:11;16.80;52.20
21353;DHT22;10834;52.268;6.770;2023-04-03T07:36:58;20.40;43.50
21353;DHT22;10834;52.268;6.770;2023-04-03T07:39:44;23.20;36.80
21353;DHT22;10834;52.268;6.770;2023-04-03T07:42:30;25.50;32.30
21353;DHT22;10834;52.268;6.770;2023-04-03T07:45:17;27.10;30.00
21353;DHT22;10834;52.268;6.770;2023-04-03T07:48:03;28.40;28.30
21353;DHT22;10834;52.268;6.770;2023-04-03T07:50:49;29.00;26.60
21353;DHT22;10834;52.268;6.770;2023-04-03T07:53:36;30.00;25.80
21353;DHT22;10834;52.268;6.770;2023-04-03T07:56:22;30.90;25.90
21353;DHT22;10834;52.268;6.770;2023-04-03T07:59:09;31.70;24.90
21353;DHT22;10834;52.268;6.770;2023-04-03T08:01:56;32.70;24.20
21353;DHT22;10834;52.268;6.770;2023-04-03T08:04:42;33.00;23.60
21353;DHT22;10834;52.268;6.770;2023-04-03T08:07:28;33.60;23.90
21353;DHT22;10834;52.268;6.770;2023-04-03T08:10:15;34.20;23.00
21353;DHT22;10834;52.268;6.770;2023-04-03T08:13:02;34.50;22.50
21353;DHT22;10834;52.268;6.770;2023-04-03T08:15:48;34.40;21.60
21353;DHT22;10834;52.268;6.770;2023-04-03T08:18:34;34.50;21.10
21353;DHT22;10834;52.268;6.770;2023-04-03T08:21:20;34.90;21.90
21353;DHT22;10834;52.268;6.770;2023-04-03T08:24:08;35.80;22.20
21353;DHT22;10834;52.268;6.770;2023-04-03T08:26:54;36.10;21.90
21353;DHT22;10834;52.268;6.770;2023-04-03T08:29:41;36.30;21.60
21353;DHT22;10834;52.268;6.770;2023-04-03T08:32:27;36.20;19.80
21353;DHT22;10834;52.268;6.770;2023-04-03T08:35:13;36.30;21.40
21353;DHT22;10834;52.268;6.770;2023-04-03T08:37:59;36.80;21.00
21353;DHT22;10834;52.268;6.770;2023-04-03T08:40:46;37.30;21.00
21353;DHT22;10834;52.268;6.770;2023-04-03T08:44:44;36.90;19.60
21353;DHT22;10834;52.268;6.770;2023-04-03T08:50:03;36.90;19.60
21353;DHT22;10834;52.268;6.770;2023-04-03T08:52:57;36.50;19.90
21353;DHT22;10834;52.268;6.770;2023-04-03T08:55:46;36.70;20.40
21353;DHT22;10834;52.268;6.770;2023-04-03T08:58:46;36.60;19.20
21353;DHT22;10834;52.268;6.770;2023-04-03T09:01:37;36.00;18.50
21353;DHT22;10834;52.268;6.770;2023-04-03T09:04:26;35.80;18.50
21353;DHT22;10834;52.268;6.770;2023-04-03T09:07:29;35.80;18.00
21353;DHT22;10834;52.268;6.770;2023-04-03T09:10:23;35.50;19.00
21353;DHT22;10834;52.268;6.770;2023-04-03T09:13:19;35.50;19.10
21353;DHT22;10834;52.268;6.770;2023-04-03T09:17:08;35.20;18.70
21353;DHT22;10834;52.268;6.770;2023-04-03T09:19:39;34.80;17.70
21353;DHT22;10834;52.268;6.770;2023-04-03T09:22:31;33.70;18.50
21353;DHT22;10834;52.268;6.770;2023-04-03T09:25:31;34.20;18.60
21353;DHT22;10834;52.268;6.770;2023-04-03T09:28:18;34.50;18.60
21353;DHT22;10834;52.268;6.770;2023-04-03T09:31:22;34.70;19.10
21353;DHT22;10834;52.268;6.770;2023-04-03T09:37:04;35.50;20.20
21353;DHT22;10834;52.268;6.770;2023-04-03T09:39:54;35.90;19.30
21353;DHT22;10834;52.268;6.770;2023-04-03T09:42:42;35.70;17.80
21353;DHT22;10834;52.268;6.770;2023-04-03T09:45:35;34.80;18.60
21353;DHT22;10834;52.268;6.770;2023-04-03T09:48:26;34.90;19.90
21353;DHT22;10834;52.268;6.770;2023-04-03T09:51:15;34.90;19.30
21353;DHT22;10834;52.268;6.770;2023-04-03T09:57:13;34.30;18.70
21353;DHT22;10834;52.268;6.770;2023-04-03T10:00:01;33.90;18.50
21353;DHT22;10834;52.268;6.770;2023-04-03T10:02:53;33.10;18.30
21353;DHT22;10834;52.268;6.770;2023-04-03T10:05:41;32.50;18.70
21353;DHT22;10834;52.268;6.770;2023-04-03T10:08:29;32.50;18.90
21353;DHT22;10834;52.268;6.770;2023-04-03T10:11:17;32.30;19.60
21353;DHT22;10834;52.268;6.770;2023-04-03T10:14:04;32.30;18.10
21353;DHT22;10834;52.268;6.770;2023-04-03T10:17:05;31.70;19.60
21353;DHT22;10834;52.268;6.770;2023-04-03T10:20:23;31.10;18.30
21353;DHT22;10834;52.268;6.770;2023-04-03T10:36:16;27.90;20.10
21353;DHT22;10834;52.268;6.770;2023-04-03T10:42:39;27.10;19.80
21353;DHT22;10834;52.268;6.770;2023-04-03T10:51:51;25.50;22.40
21353;DHT22;10834;52.268;6.770;2023-04-03T10:58:06;25.50;22.10
21353;DHT22;10834;52.268;6.770;2023-04-03T11:00:55;25.50;22.70
21353;DHT22;10834;52.268;6.770;2023-04-03T11:03:47;25.50;23.60
21353;DHT22;10834;52.268;6.770;2023-04-03T11:07:02;23.90;24.30
21353;DHT22;10834;52.268;6.770;2023-04-03T11:10:00;21.80;25.40
21353;DHT22;10834;52.268;6.770;2023-04-03T11:13:09;20.30;27.50
21353;DHT22;10834;52.268;6.770;2023-04-03T11:15:57;19.20;28.90
21353;DHT22;10834;52.268;6.770;2023-04-03T11:18:52;18.70;32.20
21353;DHT22;10834;52.268;6.770;2023-04-03T11:21:41;18.40;30.80
21353;DHT22;10834;52.268;6.770;2023-04-03T11:24:32;18.10;30.80
21353;DHT22;10834;52.268;6.770;2023-04-03T11:27:22;17.90;30.20
21353;DHT22;10834;52.268;6.770;2023-04-03T11:30:40;17.50;30.00
21353;DHT22;10834;52.268;6.770;2023-04-03T11:33:51;17.30;32.00
21353;DHT22;10834;52.268;6.770;2023-04-03T11:36:53;17.10;30.10
21353;DHT22;10834;52.268;6.770;2023-04-03T11:39:50;16.60;29.20
21353;DHT22;10834;52.268;6.770;2023-04-03T11:42:40;16.10;30.60
21353;DHT22;10834;52.268;6.770;2023-04-03T11:45:49;16.00;32.00
21353;DHT22;10834;52.268;6.770;2023-04-03T11:54:36;14.80;32.30
21353;DHT22;10834;52.268;6.770;2023-04-03T12:12:30;14.50;34.60
21353;DHT22;10834;52.268;6.770;2023-04-03T12:15:23;14.50;35.40
21353;DHT22;10834;52.268;6.770;2023-04-03T12:18:42;14.60;34.40
21353;DHT22;10834;52.268;6.770;2023-04-03T12:24:28;14.60;34.20
21353;DHT22;10834;52.268;6.770;2023-04-03T12:27:26;14.40;35.60
21353;DHT22;10834;52.268;6.770;2023-04-03T12:30:25;14.50;34.40
21353;DHT22;10834;52.268;6.770;2023-04-03T12:33:27;14.40;34.70
21353;DHT22;10834;52.268;6.770;2023-04-03T12:36:42;14.50;36.40
21353;DHT22;10834;52.268;6.770;2023-04-03T12:43:13;14.40;36.00
21353;DHT22;10834;52.268;6.770;2023-04-03T12:48:55;14.50;36.00
21353;DHT22;10834;52.268;6.770;2023-04-03T12:51:44;14.50;38.00
21353;DHT22;10834;52.268;6.770;2023-04-03T12:54:38;14.50;37.20
21353;DHT22;10834;52.268;6.770;2023-04-03T12:57:27;14.40;36.20
21353;DHT22;10834;52.268;6.770;2023-04-03T13:00:34;13.90;36.40
21353;DHT22;10834;52.268;6.770;2023-04-03T13:03:26;13.70;37.80
21353;DHT22;10834;52.268;6.770;2023-04-03T13:06:26;13.70;36.60
21353;DHT22;10834;52.268;6.770;2023-04-03T13:09:23;13.60;37.90
21353;DHT22;10834;52.268;6.770;2023-04-03T13:12:14;13.60;36.60
21353;DHT22;10834;52.268;6.770;2023-04-03T13:18:02;13.70;38.90
21353;DHT22;10834;52.268;6.770;2023-04-03T13:20:49;13.90;40.00
21353;DHT22;10834;52.268;6.770;2023-04-03T13:23:38;13.90;37.90
21353;DHT22;10834;52.268;6.770;2023-04-03T13:26:28;13.80;36.40
21353;DHT22;10834;52.268;6.770;2023-04-03T13:29:36;13.50;36.50
21353;DHT22;10834;52.268;6.770;2023-04-03T13:32:26;13.30;37.70
21353;DHT22;10834;52.268;6.770;2023-04-03T13:41:29;13.30;38.20
21353;DHT22;10834;52.268;6.770;2023-04-03T13:50:19;12.90;38.60
21353;DHT22;10834;52.268;6.770;2023-04-03T13:53:13;12.80;39.90
21353;DHT22;10834;52.268;6.770;2023-04-03T13:56:05;12.80;40.80
21353;DHT22;10834;52.268;6.770;2023-04-03T14:04:57;12.50;40.90
21353;DHT22;10834;52.268;6.770;2023-04-03T14:07:45;12.50;41.80
21353;DHT22;10834;52.268;6.770;2023-04-03T14:10:31;12.40;41.10
21353;DHT22;10834;52.268;6.770;2023-04-03T14:13:19;12.30;40.00
21353;DHT22;10834;52.268;6.770;2023-04-03T14:16:05;12.20;41.50
21353;DHT22;10834;52.268;6.770;2023-04-03T14:18:52;11.90;40.40
21353;DHT22;10834;52.268;6.770;2023-04-03T14:21:38;11.70;41.30
21353;DHT22;10834;52.268;6.770;2023-04-03T14:24:24;11.60;41.80
21353;DHT22;10834;52.268;6.770;2023-04-03T14:27:20;11.50;41.60
21353;DHT22;10834;52.268;6.770;2023-04-03T14:30:12;11.30;41.60
21353;DHT22;10834;52.268;6.770;2023-04-03T14:33:00;11.20;41.80
21353;DHT22;10834;52.268;6.770;2023-04-03T14:35:47;11.10;43.60
21353;DHT22;10834;52.268;6.770;2023-04-03T14:38:33;11.00;43.50
21353;DHT22;10834;52.268;6.770;2023-04-03T14:41:22;11.00;44.40
21353;DHT22;10834;52.268;6.770;2023-04-03T14:44:09;10.90;44.80
21353;DHT22;10834;52.268;6.770;2023-04-03T14:46:55;10.90;42.90
21353;DHT22;10834;52.268;6.770;2023-04-03T14:49:42;10.70;43.90
21353;DHT22;10834;52.268;6.770;2023-04-03T14:52:34;10.60;42.90
21353;DHT22;10834;52.268;6.770;2023-04-03T14:55:23;10.50;42.60
21353;DHT22;10834;52.268;6.770;2023-04-03T14:58:17;10.40;43.30
21353;DHT22;10834;52.268;6.770;2023-04-03T15:01:03;10.20;42.90
21353;DHT22;10834;52.268;6.770;2023-04-03T15:03:50;10.10;44.20
21353;DHT22;10834;52.268;6.770;2023-04-03T15:06:36;10.00;43.50
21353;DHT22;10834;52.268;6.770;2023-04-03T15:09:25;9.90;43.60
21353;DHT22;10834;52.268;6.770;2023-04-03T15:12:11;9.90;43.70
21353;DHT22;10834;52.268;6.770;2023-04-03T15:14:58;9.80;43.70
21353;DHT22;10834;52.268;6.770;2023-04-03T15:17:44;9.80;45.10
21353;DHT22;10834;52.268;6.770;2023-04-03T15:20:31;9.90;45.50
21353;DHT22;10834;52.268;6.770;2023-04-03T15:23:18;9.90;45.90
21353;DHT22;10834;52.268;6.770;2023-04-03T15:26:05;9.90;46.20
21353;DHT22;10834;52.268;6.770;2023-04-03T15:28:51;9.80;44.70
21353;DHT22;10834;52.268;6.770;2023-04-03T15:31:37;9.60;45.40
21353;DHT22;10834;52.268;6.770;2023-04-03T15:34:23;9.50;45.80
21353;DHT22;10834;52.268;6.770;2023-04-03T15:37:09;9.40;44.20
21353;DHT22;10834;52.268;6.770;2023-04-03T15:39:55;9.30;45.00
21353;DHT22;10834;52.268;6.770;2023-04-03T15:42:41;9.20;45.50
21353;DHT22;10834;52.268;6.770;2023-04-03T15:45:31;9.20;44.60
21353;DHT22;10834;52.268;6.770;2023-04-03T15:48:17;9.20;46.20
21353;DHT22;10834;52.268;6.770;2023-04-03T15:51:05;9.20;47.40
21353;DHT22;10834;52.268;6.770;2023-04-03T15:53:51;9.10;47.70
21353;DHT22;10834;52.268;6.770;2023-04-03T15:56:37;9.10;46.40
21353;DHT22;10834;52.268;6.770;2023-04-03T15:59:23;9.00;47.00
21353;DHT22;10834;52.268;6.770;2023-04-03T16:02:10;8.90;46.60
21353;DHT22;10834;52.268;6.770;2023-04-03T16:04:59;8.90;47.00
21353;DHT22;10834;52.268;6.770;2023-04-03T16:07:45;8.80;47.20
21353;DHT22;10834;52.268;6.770;2023-04-03T16:10:32;8.70;46.90
21353;DHT22;10834;52.268;6.770;2023-04-03T16:13:18;8.70;47.80
21353;DHT22;10834;52.268;6.770;2023-04-03T16:16:05;8.70;48.50
21353;DHT22;10834;52.268;6.770;2023-04-03T16:18:51;8.60;48.70
21353;DHT22;10834;52.268;6.770;2023-04-03T16:21:39;8.50;48.40
21353;DHT22;10834;52.268;6.770;2023-04-03T16:24:25;8.50;47.80
21353;DHT22;10834;52.268;6.770;2023-04-03T16:27:11;8.40;48.70
21353;DHT22;10834;52.268;6.770;2023-04-03T16:29:57;8.40;48.50
21353;DHT22;10834;52.268;6.770;2023-04-03T16:32:43;8.30;48.50
21353;DHT22;10834;52.268;6.770;2023-04-03T16:35:30;8.30;48.50
21353;DHT22;10834;52.268;6.770;2023-04-03T16:38:16;8.30;47.80
21353;DHT22;10834;52.268;6.770;2023-04-03T16:41:04;8.20;49.40
21353;DHT22;10834;52.268;6.770;2023-04-03T16:43:50;8.20;48.30
21353;DHT22;10834;52.268;6.770;2023-04-03T16:46:36;8.10;48.70
21353;DHT22;10834;52.268;6.770;2023-04-03T16:49:23;8.10;49.60
21353;DHT22;10834;52.268;6.770;2023-04-03T16:52:09;8.00;49.00
21353;DHT22;10834;52.268;6.770;2023-04-03T16:54:55;8.00;50.30
21353;DHT22;10834;52.268;6.770;2023-04-03T16:57:41;7.90;50.10
21353;DHT22;10834;52.268;6.770;2023-04-03T17:00:30;7.90;49.20
21353;DHT22;10834;52.268;6.770;2023-04-03T17:03:16;7.90;49.50
21353;DHT22;10834;52.268;6.770;2023-04-03T17:06:02;7.90;50.50
21353;DHT22;10834;52.268;6.770;2023-04-03T17:08:50;7.80;49.50
21353;DHT22;10834;52.268;6.770;2023-04-03T17:11:36;7.80;48.50
21353;DHT22;10834;52.268;6.770;2023-04-03T17:14:23;7.80;49.30
21353;DHT22;10834;52.268;6.770;2023-04-03T17:17:10;7.80;49.90
21353;DHT22;10834;52.268;6.770;2023-04-03T17:19:56;7.70;50.40
21353;DHT22;10834;52.268;6.770;2023-04-03T17:22:42;7.60;50.30
21353;DHT22;10834;52.268;6.770;2023-04-03T17:25:30;7.60;50.60
21353;DHT22;10834;52.268;6.770;2023-04-03T17:28:16;7.50;49.90
21353;DHT22;10834;52.268;6.770;2023-04-03T17:31:02;7.50;50.40
21353;DHT22;10834;52.268;6.770;2023-04-03T17:33:48;7.50;50.70
21353;DHT22;10834;52.268;6.770;2023-04-03T17:36:34;7.40;50.70
21353;DHT22;10834;52.268;6.770;2023-04-03T17:39:21;7.40;50.10
21353;DHT22;10834;52.268;6.770;2023-04-03T17:42:07;7.30;49.50
21353;DHT22;10834;52.268;6.770;2023-04-03T17:44:53;7.30;49.20
21353;DHT22;10834;52.268;6.770;2023-04-03T17:47:39;7.30;49.40
21353;DHT22;10834;52.268;6.770;2023-04-03T17:50:25;7.20;51.10
21353;DHT22;10834;52.268;6.770;2023-04-03T17:53:11;7.10;50.60
21353;DHT22;10834;52.268;6.770;2023-04-03T17:55:57;7.10;50.20
21353;DHT22;10834;52.268;6.770;2023-04-03T17:58:43;7.10;50.30
21353;DHT22;10834;52.268;6.770;2023-04-03T18:01:32;7.00;51.00
21353;DHT22;10834;52.268;6.770;2023-04-03T18:04:18;6.90;50.60
21353;DHT22;10834;52.268;6.770;2023-04-03T18:07:04;6.90;50.90
21353;DHT22;10834;52.268;6.770;2023-04-03T18:09:55;6.80;53.30
21353;DHT22;10834;52.268;6.770;2023-04-03T18:12:42;6.70;53.00
21353;DHT22;10834;52.268;6.770;2023-04-03T18:15:28;6.60;52.90
21353;DHT22;10834;52.268;6.770;2023-04-03T18:18:15;6.60;52.90
21353;DHT22;10834;52.268;6.770;2023-04-03T18:21:02;6.50;53.90
21353;DHT22;10834;52.268;6.770;2023-04-03T18:23:51;6.40;54.50
21353;DHT22;10834;52.268;6.770;2023-04-03T18:26:39;6.40;54.40
21353;DHT22;10834;52.268;6.770;2023-04-03T18:29:27;6.30;55.70
21353;DHT22;10834;52.268;6.770;2023-04-03T18:32:17;6.20;55.90
21353;DHT22;10834;52.268;6.770;2023-04-03T18:35:04;6.10;56.80
21353;DHT22;10834;52.268;6.770;2023-04-03T18:37:50;6.00;58.40
21353;DHT22;10834;52.268;6.770;2023-04-03T18:40:37;6.00;59.20
21353;DHT22;10834;52.268;6.770;2023-04-03T18:43:25;5.90;58.80
21353;DHT22;10834;52.268;6.770;2023-04-03T18:46:11;5.80;59.80
21353;DHT22;10834;52.268;6.770;2023-04-03T18:48:58;5.80;60.80
21353;DHT22;10834;52.268;6.770;2023-04-03T18:51:44;5.70;62.90
21353;DHT22;10834;52.268;6.770;2023-04-03T18:54:31;5.70;65.80
21353;DHT22;10834;52.268;6.770;2023-04-03T18:57:17;5.60;65.60
21353;DHT22;10834;52.268;6.770;2023-04-03T19:00:03;5.60;66.50
21353;DHT22;10834;52.268;6.770;2023-04-03T19:02:50;5.50;67.60
21353;DHT22;10834;52.268;6.770;2023-04-03T19:05:36;5.40;69.00
21353;DHT22;10834;52.268;6.770;2023-04-03T19:08:22;5.40;72.00
21353;DHT22;10834;52.268;6.770;2023-04-03T19:11:09;5.30;75.90
21353;DHT22;10834;52.268;6.770;2023-04-03T19:13:56;5.30;75.10
21353;DHT22;10834;52.268;6.770;2023-04-03T19:16:43;5.20;74.70
21353;DHT22;10834;52.268;6.770;2023-04-03T19:19:29;5.20;76.30
21353;DHT22;10834;52.268;6.770;2023-04-03T19:22:15;5.10;78.60
21353;DHT22;10834;52.268;6.770;2023-04-03T19:25:02;5.10;80.40
21353;DHT22;10834;52.268;6.770;2023-04-03T19:27:49;5.00;81.20